This demonstration page uses our WeatherBlox Daily Observations layout. Learn more.

38.88101, -77.10428

Hourly Observations for January 26, 2020

Temp ( °F °C ) Dew Point ( °F °C ) Humidity (%) Winds ( mph kmh ) Pressure ( in mb ) Visibility ( mi km ) Precip ( " mm )
12:52 am 00:52 Mostly Clear 43 6.1 30 -1.1 60 60 NNW 7 11 29.9 1013 10 16.0934 0 0
1:52 am 01:52 Mostly Clear 42 5.6 29 -1.7 60 60 Calm 29.91 1013 10 16.0934 0 0
2:52 am 02:52 Partly Cloudy 41 5 29 -1.7 62 62 Calm 29.91 1013 10 16.0934 0 0
3:52 am 03:52 Partly Cloudy 39 3.9 31 -0.6 73 73 SSE 3 6 29.91 1013 10 16.0934 0 0
4:52 am 04:52 Mostly Cloudy 38 3.3 34 1.1 86 86 Calm 29.9 1012 10 16.0934 0 0
5:52 am 05:52 Partly Cloudy 37 2.8 34 1.1 89 89 S 7 11 29.91 1013 10 16.0934 0 0
6:52 am 06:52 Partly Cloudy 36 2.2 30 -1.1 79 79 SSW 3 6 29.92 1013 10 16.0934 0 0
7:52 am 07:52 Partly Cloudy 37 2.8 32 0 82 82 Calm 29.93 1013 10 16.0934 0 0
8:52 am 08:52 Mostly Cloudy 43 6.1 33 0.6 68 68 WSW 5 7 29.93 1014 10 16.0934 0 0
9:52 am 09:52 Partly Cloudy 46 7.8 32 0 58 58 W 8 13 29.93 1014 10 16.0934 0 0
10:52 am 10:52 Partly Cloudy 48 8.9 29 -1.7 48 48 W 14 22 29.92 1013 10 16.0934 0 0
11:52 am 11:52 Mostly Cloudy 49 9.4 30 -1.1 48 48 WNW 13 20 29.91 1013 10 16.0934 0 0
12:52 pm 12:52 Cloudy 48 8.9 29 -1.7 48 48 WNW 14 22 29.89 1012 10 16.0934 0 0
1:52 pm 13:52 Cloudy 48 8.9 29 -1.7 48 48 W 13 20 29.87 1012 10 16.0934 0 0
2:52 pm 14:52 Cloudy 48 8.9 29 -1.7 48 48 W 10 17 29.87 1012 10 16.0934 0 0
3:52 pm 15:52 Cloudy 48 8.9 29 -1.7 48 48 WNW 8 13 29.87 1012 10 16.0934 0 0
4:52 pm 16:52 Cloudy 46 7.8 30 -1.1 54 54 N 9 15 29.88 1012 10 16.0934 0 0
5:52 pm 17:52 Cloudy 46 7.8 29 -1.7 51 51 WNW 9 15 29.89 1012 10 16.0934 0 0
6:52 pm 18:52 Cloudy 46 7.8 28 -2.2 50 50 WNW 6 9 29.9 1013 10 16.0934 0 0
7:52 pm 19:52 Cloudy 44 6.7 28 -2.2 53 53 NW 15 24 29.9 1013 10 16.0934 0 0
8:52 pm 20:52 Cloudy 43 6.1 28 -2.2 56 56 NW 6 9 29.9 1012 10 16.0934 0 0
9:52 pm 21:52 Cloudy 42 5.6 28 -2.2 58 58 NNW 5 7 29.89 1012 10 16.0934 0 0
10:52 pm 22:52 Mostly Clear 42 5.6 27 -2.8 55 55 W 6 9 29.87 1011 10 16.0934 0 0
11:52 pm 23:52 Mostly Clear 40 4.4 27 -2.8 60 60 Calm 29.86 1011 10 16.0934 0 0

Powered by AerisWeather